createdAt,value
2023-03-06T00:02:21.428Z,5.77
2023-03-06T00:04:47.933Z,3.97
2023-03-06T00:07:14.671Z,4.33
2023-03-06T00:09:41.786Z,3.80
2023-03-06T00:12:08.908Z,1.10
2023-03-06T00:14:35.331Z,3.90
2023-03-06T00:17:01.880Z,5.90
2023-03-06T00:19:28.283Z,2.20
2023-03-06T00:21:54.819Z,1.90
2023-03-06T00:24:21.365Z,1.57
2023-03-06T00:26:47.908Z,11.00
2023-03-06T00:29:15.053Z,3.00
2023-03-06T00:31:47.723Z,3.13
2023-03-06T00:34:15.065Z,2.90
2023-03-06T00:36:42.214Z,2.13
2023-03-06T00:39:09.298Z,1.23
2023-03-06T00:41:35.907Z,1.40
2023-03-06T00:44:02.373Z,1.50
2023-03-06T00:46:29.037Z,3.30
2023-03-06T00:48:55.651Z,1.00
2023-03-06T00:51:22.197Z,0.80
2023-03-06T00:53:48.689Z,1.03
2023-03-06T00:56:15.152Z,1.00
2023-03-06T00:58:41.649Z,0.70
2023-03-06T01:01:08.475Z,0.80
2023-03-06T01:03:34.924Z,0.90
2023-03-06T01:06:01.625Z,0.60
2023-03-06T01:08:28.357Z,0.70
2023-03-06T01:10:56.381Z,0.60
2023-03-06T01:13:23.168Z,0.60
2023-03-06T01:15:51.559Z,0.60
2023-03-06T01:18:18.457Z,0.90
2023-03-06T01:20:44.987Z,0.50
2023-03-06T01:23:11.463Z,0.60
2023-03-06T01:25:39.449Z,0.70
2023-03-06T01:28:06.010Z,0.73
2023-03-06T01:30:32.717Z,0.50
2023-03-06T01:33:00.822Z,0.67
2023-03-06T01:35:27.285Z,0.60
2023-03-06T01:37:53.948Z,0.70
2023-03-06T01:40:20.606Z,0.73
2023-03-06T01:42:48.533Z,0.80
2023-03-06T01:45:15.055Z,0.70
2023-03-06T01:47:42.004Z,0.90
2023-03-06T01:50:10.172Z,0.80
2023-03-06T01:52:39.422Z,0.80
2023-03-06T01:55:08.820Z,0.80
2023-03-06T01:57:38.476Z,0.60
2023-03-06T02:00:08.418Z,0.70
2023-03-06T02:02:43.970Z,0.67
2023-03-06T02:05:11.112Z,0.70
2023-03-06T02:07:38.179Z,0.70
2023-03-06T02:10:05.179Z,0.60
2023-03-06T02:12:31.855Z,0.60
2023-03-06T02:14:58.705Z,0.70
2023-03-06T02:17:26.883Z,0.80
2023-03-06T02:20:02.637Z,0.70
2023-03-06T02:22:55.469Z,1.13
2023-03-06T02:25:28.127Z,0.60
2023-03-06T02:27:54.683Z,0.70
2023-03-06T02:30:22.060Z,0.70
2023-03-06T02:32:48.512Z,0.57
2023-03-06T02:35:19.996Z,0.77
2023-03-06T02:37:47.292Z,0.50
2023-03-06T02:40:17.166Z,0.57
2023-03-06T02:42:48.179Z,0.63
2023-03-06T02:45:17.234Z,0.93
2023-03-06T02:47:43.977Z,0.70
2023-03-06T02:50:10.810Z,0.80
2023-03-06T02:52:37.449Z,0.67
2023-03-06T02:55:04.138Z,1.27
2023-03-06T02:57:30.566Z,0.60
2023-03-06T02:59:58.789Z,0.70
2023-03-06T03:02:25.638Z,0.73
2023-03-06T03:04:52.222Z,0.60
2023-03-06T03:07:18.702Z,0.67
2023-03-06T03:09:45.649Z,0.53
2023-03-06T03:12:13.382Z,0.60
2023-03-06T03:14:39.873Z,1.27
2023-03-06T03:17:06.327Z,0.57
2023-03-06T03:19:32.939Z,0.80
2023-03-06T03:22:00.132Z,1.17
2023-03-06T03:24:26.933Z,0.50
2023-03-06T03:26:54.479Z,4.97
2023-03-06T03:29:22.720Z,0.60
2023-03-06T03:31:49.348Z,1.03
2023-03-06T03:34:15.851Z,0.80
2023-03-06T03:36:42.814Z,0.60
2023-03-06T03:39:11.149Z,0.60
2023-03-06T03:41:38.296Z,0.83
2023-03-06T03:44:07.483Z,1.03
2023-03-06T03:46:34.224Z,1.27
2023-03-06T03:49:02.152Z,1.43
2023-03-06T03:51:28.782Z,0.60
2023-03-06T03:53:58.081Z,0.60
2023-03-06T03:56:27.281Z,0.53
2023-03-06T03:59:00.312Z,1.10
2023-03-06T04:01:31.962Z,0.63
2023-03-06T04:03:59.524Z,1.10
2023-03-06T04:06:26.138Z,0.80
2023-03-06T04:08:53.188Z,1.23
2023-03-06T04:11:19.925Z,1.30
2023-03-06T04:13:46.881Z,0.60
2023-03-06T04:16:13.518Z,3.40
2023-03-06T04:18:40.661Z,0.73
2023-03-06T04:21:07.895Z,0.70
2023-03-06T04:23:34.702Z,0.70
2023-03-06T04:26:01.719Z,0.60
2023-03-06T04:28:29.020Z,0.63
2023-03-06T04:30:56.389Z,1.27
2023-03-06T04:33:23.118Z,0.70
2023-03-06T04:35:50.477Z,0.67
2023-03-06T04:38:22.211Z,0.60
2023-03-06T04:40:49.682Z,1.13
2023-03-06T04:43:16.946Z,0.70
2023-03-06T04:45:43.465Z,1.60
2023-03-06T04:48:12.345Z,0.77
2023-03-06T04:50:39.160Z,0.60
2023-03-06T04:53:05.680Z,0.63
2023-03-06T04:55:32.359Z,0.73
2023-03-06T04:57:59.024Z,2.10
2023-03-06T05:00:31.408Z,1.27
2023-03-06T05:02:58.803Z,0.83
2023-03-06T05:05:25.639Z,0.83
2023-03-06T05:07:52.128Z,0.80
2023-03-06T05:10:18.981Z,0.60
2023-03-06T05:12:45.468Z,0.67
2023-03-06T05:15:12.145Z,0.73
2023-03-06T05:17:38.998Z,0.70
2023-03-06T05:20:09.579Z,0.63
2023-03-06T05:22:36.112Z,0.73
2023-03-06T05:25:03.182Z,0.97
2023-03-06T05:27:29.920Z,0.70
2023-03-06T05:29:56.494Z,0.70
2023-03-06T05:32:23.030Z,0.90
2023-03-06T05:34:49.911Z,0.70
2023-03-06T05:37:16.569Z,0.70
2023-03-06T05:39:43.657Z,3.10
2023-03-06T05:42:10.351Z,1.47
2023-03-06T05:44:37.917Z,3.27
2023-03-06T05:47:04.681Z,1.63
2023-03-06T05:49:32.182Z,1.97
2023-03-06T05:51:58.759Z,0.90
2023-03-06T05:54:26.180Z,1.80
2023-03-06T05:56:52.650Z,1.07
2023-03-06T05:59:19.196Z,1.87
2023-03-06T06:01:45.633Z,1.10
2023-03-06T06:04:12.027Z,0.97
2023-03-06T06:06:38.999Z,1.43
2023-03-06T06:09:05.742Z,0.80
2023-03-06T06:11:32.304Z,2.20
2023-03-06T06:13:58.862Z,1.03
2023-03-06T06:16:25.335Z,4.20
2023-03-06T06:18:51.864Z,2.67
2023-03-06T06:21:18.471Z,1.77
2023-03-06T06:23:45.825Z,1.10
2023-03-06T06:26:12.550Z,1.30
2023-03-06T06:28:39.313Z,1.63
2023-03-06T06:31:12.418Z,2.20
2023-03-06T06:33:39.420Z,1.20
2023-03-06T06:36:05.992Z,2.40
2023-03-06T06:38:32.434Z,1.20
2023-03-06T06:41:31.087Z,1.60
2023-03-06T06:43:45.234Z,3.00
2023-03-06T06:46:44.665Z,1.13
2023-03-06T06:48:59.946Z,1.90
2023-03-06T06:51:26.686Z,4.40
2023-03-06T06:53:53.189Z,5.50
2023-03-06T06:56:19.605Z,7.00
2023-03-06T06:58:46.541Z,5.87
2023-03-06T07:01:13.551Z,5.50
2023-03-06T07:03:40.813Z,7.60
2023-03-06T07:06:07.684Z,6.07
2023-03-06T07:08:34.265Z,3.93
2023-03-06T07:11:05.249Z,3.30
2023-03-06T07:13:32.032Z,3.07
2023-03-06T07:15:58.503Z,4.17
2023-03-06T07:18:25.237Z,3.50
2023-03-06T07:20:53.042Z,2.87
2023-03-06T07:23:19.495Z,1.40
2023-03-06T07:25:46.070Z,1.53
2023-03-06T07:28:12.667Z,1.70
2023-03-06T07:30:42.470Z,1.10
2023-03-06T07:33:08.967Z,1.10
2023-03-06T07:35:35.905Z,2.10
2023-03-06T07:38:02.430Z,1.90
2023-03-06T07:40:29.194Z,2.27
2023-03-06T07:43:06.015Z,1.53
2023-03-06T07:45:42.645Z,1.63
2023-03-06T07:48:09.498Z,2.10
2023-03-06T07:50:35.986Z,1.60
2023-03-06T07:53:02.412Z,1.47
2023-03-06T07:55:29.165Z,1.30
2023-03-06T07:57:55.604Z,2.10
2023-03-06T08:00:22.141Z,1.50
2023-03-06T08:02:49.540Z,1.33
2023-03-06T08:05:16.702Z,1.73
2023-03-06T08:07:43.641Z,0.90
2023-03-06T08:10:11.854Z,1.10
2023-03-06T08:12:38.247Z,1.20
2023-03-06T08:15:05.219Z,1.10
2023-03-06T08:17:31.678Z,2.60
2023-03-06T08:19:58.161Z,4.67
2023-03-06T08:22:24.615Z,4.03
2023-03-06T08:24:53.874Z,4.53
2023-03-06T08:27:20.295Z,3.60
2023-03-06T08:29:46.714Z,3.20
2023-03-06T08:32:13.202Z,1.03
2023-03-06T08:34:41.054Z,1.40
2023-03-06T08:37:07.491Z,0.90
2023-03-06T08:39:33.935Z,1.53
2023-03-06T08:42:00.401Z,1.40
2023-03-06T08:44:26.915Z,1.73
2023-03-06T08:46:53.395Z,1.30
2023-03-06T08:49:20.069Z,2.43
2023-03-06T08:51:46.500Z,1.13
2023-03-06T08:54:13.438Z,1.27
2023-03-06T08:56:39.911Z,1.10
2023-03-06T08:59:06.598Z,1.00
2023-03-06T09:01:35.168Z,1.10
2023-03-06T09:04:02.957Z,1.20
2023-03-06T09:06:30.938Z,1.70
2023-03-06T09:08:57.437Z,1.30
2023-03-06T09:11:25.256Z,5.17
2023-03-06T09:13:52.231Z,4.53
2023-03-06T09:16:18.840Z,3.43
2023-03-06T09:18:45.922Z,1.90
2023-03-06T09:21:12.389Z,1.40
2023-03-06T09:23:39.539Z,1.20
2023-03-06T09:26:07.350Z,1.20
2023-03-06T09:28:38.828Z,1.10
2023-03-06T09:31:12.723Z,1.63
2023-03-06T09:33:39.384Z,1.33
2023-03-06T09:36:07.143Z,1.00
2023-03-06T09:38:34.137Z,1.27
2023-03-06T09:41:06.489Z,1.53
2023-03-06T09:43:39.256Z,1.63
2023-03-06T09:46:24.388Z,1.00
2023-03-06T09:49:10.608Z,1.47
2023-03-06T09:51:51.690Z,1.30
2023-03-06T09:54:20.824Z,1.30
2023-03-06T09:56:48.691Z,1.00
2023-03-06T09:59:19.026Z,3.33
2023-03-06T10:01:51.280Z,1.37
2023-03-06T10:04:39.188Z,1.70
2023-03-06T10:07:13.005Z,1.93
2023-03-06T10:09:42.012Z,1.30
2023-03-06T10:12:17.736Z,1.60
2023-03-06T10:14:48.399Z,6.83
2023-03-06T10:20:17.352Z,1.87
2023-03-06T10:23:00.053Z,2.00
2023-03-06T10:25:29.474Z,1.80
2023-03-06T10:27:57.916Z,1.60
2023-03-06T10:30:43.128Z,1.40
2023-03-06T10:33:17.312Z,1.80
2023-03-06T10:35:51.792Z,1.27
2023-03-06T10:38:19.741Z,1.50
2023-03-06T10:41:06.983Z,2.80
2023-03-06T10:43:36.369Z,1.63
2023-03-06T10:46:03.972Z,1.80
2023-03-06T10:48:30.892Z,1.60
2023-03-06T10:51:29.894Z,1.60
2023-03-06T10:54:04.561Z,2.13
2023-03-06T10:56:39.063Z,5.80
2023-03-06T10:59:17.163Z,2.33
2023-03-06T11:01:45.137Z,0.90
2023-03-06T11:04:14.718Z,1.27
2023-03-06T11:06:41.494Z,2.97
2023-03-06T11:09:15.904Z,3.23
2023-03-06T11:11:42.328Z,1.80
2023-03-06T11:14:16.255Z,4.73
2023-03-06T11:16:52.559Z,3.20
2023-03-06T11:19:18.976Z,1.17
2023-03-06T11:21:59.285Z,1.70
2023-03-06T11:24:27.064Z,1.00
2023-03-06T11:26:55.983Z,0.90
2023-03-06T11:29:38.870Z,2.00
2023-03-06T11:32:27.634Z,1.07
2023-03-06T11:34:57.958Z,2.07
2023-03-06T11:37:45.960Z,6.30
2023-03-06T11:40:20.341Z,2.27
2023-03-06T11:42:52.976Z,2.63
2023-03-06T11:45:25.407Z,1.90
2023-03-06T11:48:21.258Z,1.40
2023-03-06T11:50:57.160Z,3.63
2023-03-06T11:53:29.472Z,1.47
2023-03-06T11:56:02.855Z,1.60
2023-03-06T11:58:48.648Z,3.73
2023-03-06T12:01:24.263Z,2.00
2023-03-06T12:03:58.776Z,1.30
2023-03-06T12:06:47.124Z,3.27
2023-03-06T12:09:13.522Z,1.40
2023-03-06T12:12:04.203Z,1.57
2023-03-06T12:14:34.560Z,1.93
2023-03-06T12:17:18.980Z,2.30
2023-03-06T12:19:45.635Z,1.60
2023-03-06T12:22:31.417Z,4.10
2023-03-06T12:25:09.416Z,4.10
2023-03-06T12:27:35.903Z,6.33
2023-03-06T12:30:15.947Z,1.50
2023-03-06T12:33:04.918Z,6.47
2023-03-06T12:35:42.128Z,2.00
2023-03-06T12:38:17.777Z,2.17
2023-03-06T12:40:46.968Z,1.50
2023-03-06T12:43:16.233Z,1.50
2023-03-06T12:45:44.259Z,0.97
2023-03-06T12:48:25.696Z,0.87
2023-03-06T12:50:52.574Z,2.00
2023-03-06T12:53:24.743Z,1.30
2023-03-06T12:55:51.656Z,3.20
2023-03-06T12:58:30.603Z,1.10
2023-03-06T13:01:09.557Z,2.17
2023-03-06T13:03:55.140Z,2.90
2023-03-06T13:06:21.552Z,1.47
2023-03-06T13:08:57.171Z,3.07
2023-03-06T13:11:42.538Z,1.33
2023-03-06T13:14:53.910Z,1.30
2023-03-06T13:17:23.552Z,1.53
2023-03-06T13:20:09.928Z,4.13
2023-03-06T13:22:36.687Z,1.17
2023-03-06T13:25:18.834Z,2.67
2023-03-06T13:27:51.538Z,2.70
2023-03-06T13:30:27.068Z,1.77
2023-03-06T13:32:55.394Z,2.60
2023-03-06T13:35:32.037Z,2.47
2023-03-06T13:37:59.098Z,1.53
2023-03-06T13:40:27.242Z,1.63
2023-03-06T13:42:56.884Z,2.37
2023-03-06T13:45:24.618Z,1.90
2023-03-06T13:50:43.489Z,4.70
2023-03-06T13:53:19.025Z,2.33
2023-03-06T13:56:04.467Z,5.50
2023-03-06T13:58:54.102Z,6.87
2023-03-06T14:01:24.010Z,3.10
2023-03-06T14:04:09.501Z,3.47
2023-03-06T14:06:35.944Z,4.40
2023-03-06T14:09:07.619Z,2.73
2023-03-06T14:11:34.620Z,2.50
2023-03-06T14:14:01.448Z,5.80
2023-03-06T14:16:34.816Z,3.83
2023-03-06T14:19:15.815Z,3.00
2023-03-06T14:21:46.116Z,3.27
2023-03-06T14:24:17.118Z,1.10
2023-03-06T14:26:45.693Z,2.50
2023-03-06T14:29:38.646Z,1.33
2023-03-06T14:32:09.630Z,1.00
2023-03-06T14:34:39.624Z,0.90
2023-03-06T14:37:07.652Z,1.13
2023-03-06T14:39:38.915Z,3.77
2023-03-06T14:42:25.138Z,2.30
2023-03-06T14:45:02.311Z,3.90
2023-03-06T14:47:30.066Z,3.03
2023-03-06T14:50:15.193Z,1.30
2023-03-06T14:52:42.680Z,1.73
2023-03-06T14:55:16.758Z,1.70
2023-03-06T14:57:43.316Z,4.00
2023-03-06T15:00:18.472Z,5.07
2023-03-06T15:02:46.247Z,1.80
2023-03-06T15:05:21.663Z,1.63
2023-03-06T15:07:49.757Z,1.40
2023-03-06T15:10:20.583Z,2.90
2023-03-06T15:12:47.273Z,1.17
2023-03-06T15:15:13.659Z,1.50
2023-03-06T15:17:41.637Z,1.30
2023-03-06T15:20:28.462Z,1.60
2023-03-06T15:22:54.884Z,1.27
2023-03-06T15:25:21.296Z,3.10
2023-03-06T15:27:49.824Z,2.60
2023-03-06T15:30:25.554Z,3.03
2023-03-06T15:32:52.379Z,3.57
2023-03-06T15:35:37.802Z,1.47
2023-03-06T15:38:22.739Z,2.63
2023-03-06T15:40:59.260Z,3.30
2023-03-06T15:43:27.326Z,1.73
2023-03-06T15:45:57.958Z,2.37
2023-03-06T15:48:24.436Z,2.33
2023-03-06T15:50:50.954Z,4.63
2023-03-06T15:53:17.414Z,3.60
2023-03-06T15:55:43.865Z,1.20
2023-03-06T15:58:13.319Z,2.80
2023-03-06T16:00:39.977Z,5.20
2023-03-06T16:03:06.391Z,1.50
2023-03-06T16:05:32.847Z,4.20
2023-03-06T16:07:59.346Z,4.37
2023-03-06T16:10:27.471Z,2.07
2023-03-06T16:12:55.284Z,1.87
2023-03-06T16:15:23.030Z,1.70
2023-03-06T16:17:49.477Z,2.40
2023-03-06T16:20:20.546Z,2.50
2023-03-06T16:22:47.458Z,5.03
2023-03-06T16:25:14.563Z,5.97
2023-03-06T16:27:47.908Z,2.33
2023-03-06T16:30:17.422Z,2.37
2023-03-06T16:32:45.230Z,2.77
2023-03-06T16:35:12.542Z,5.60
2023-03-06T16:37:41.911Z,2.70
2023-03-06T16:40:27.888Z,4.07
2023-03-06T16:42:55.292Z,3.10
2023-03-06T16:45:22.730Z,2.57
2023-03-06T16:47:49.536Z,4.33
2023-03-06T16:50:21.811Z,4.03
2023-03-06T16:52:48.696Z,3.73
2023-03-06T16:55:15.193Z,3.17
2023-03-06T16:57:41.749Z,3.00
2023-03-06T17:00:09.433Z,5.30
2023-03-06T17:02:35.851Z,2.50
2023-03-06T17:05:03.429Z,3.03
2023-03-06T17:07:29.870Z,2.60
2023-03-06T17:09:57.232Z,3.03
2023-03-06T17:12:23.621Z,3.37
2023-03-06T17:14:50.074Z,7.47
2023-03-06T17:17:17.029Z,4.63
2023-03-06T17:19:46.493Z,4.43
2023-03-06T17:22:12.925Z,9.00
2023-03-06T17:24:39.629Z,4.03
2023-03-06T17:27:06.060Z,4.93
2023-03-06T17:29:32.523Z,3.37
2023-03-06T17:31:59.596Z,3.70
2023-03-06T17:34:26.059Z,3.57
2023-03-06T17:36:52.481Z,5.70
2023-03-06T17:39:19.901Z,2.97
2023-03-06T17:41:46.586Z,2.57
2023-03-06T17:44:16.117Z,2.93
2023-03-06T17:46:43.267Z,4.13
2023-03-06T17:49:09.769Z,5.70
2023-03-06T17:51:36.263Z,3.00
2023-03-06T17:54:03.402Z,3.90
2023-03-06T17:56:30.200Z,2.50
2023-03-06T17:58:56.980Z,6.50
2023-03-06T18:01:27.182Z,3.43
2023-03-06T18:03:54.126Z,2.73
2023-03-06T18:06:21.987Z,2.60
2023-03-06T18:08:51.544Z,5.03
2023-03-06T18:11:19.150Z,3.40
2023-03-06T18:13:46.398Z,3.90
2023-03-06T18:16:14.111Z,6.20
2023-03-06T18:18:40.751Z,3.30
2023-03-06T18:21:09.104Z,3.03
2023-03-06T18:23:36.330Z,5.00
2023-03-06T18:26:13.461Z,3.57
2023-03-06T18:28:44.396Z,5.00
2023-03-06T18:31:21.551Z,3.63
2023-03-06T18:33:49.374Z,5.07
2023-03-06T18:36:16.942Z,4.30
2023-03-06T18:38:45.431Z,4.30
2023-03-06T18:41:12.691Z,4.40
2023-03-06T18:43:39.866Z,6.63
2023-03-06T18:46:06.487Z,3.90
2023-03-06T18:48:33.451Z,7.43
2023-03-06T18:51:03.787Z,3.90
2023-03-06T18:53:30.440Z,4.47
2023-03-06T18:55:57.263Z,4.20
2023-03-06T18:58:23.699Z,3.77
2023-03-06T19:00:50.741Z,6.87
2023-03-06T19:03:17.321Z,4.43
2023-03-06T19:05:45.180Z,3.67
2023-03-06T19:08:11.935Z,4.17
2023-03-06T19:10:39.527Z,3.93
2023-03-06T19:13:06.298Z,4.87
2023-03-06T19:15:34.174Z,4.60
2023-03-06T19:18:00.648Z,4.23
2023-03-06T19:20:27.336Z,11.23
2023-03-06T19:22:53.904Z,5.90
2023-03-06T19:25:20.762Z,5.07
2023-03-06T19:27:47.747Z,5.17
2023-03-06T19:30:14.490Z,4.57
2023-03-06T19:32:45.585Z,3.50
2023-03-06T19:35:12.384Z,4.20
2023-03-06T19:37:38.929Z,5.90
2023-03-06T19:40:06.327Z,6.93
2023-03-06T19:42:32.771Z,4.87
2023-03-06T19:44:59.435Z,4.37
2023-03-06T19:47:25.998Z,4.50
2023-03-06T19:49:53.016Z,5.20
2023-03-06T19:52:19.627Z,4.30
2023-03-06T19:54:47.309Z,10.30
2023-03-06T19:57:13.984Z,4.80
2023-03-06T19:59:40.976Z,4.60
2023-03-06T20:02:10.146Z,3.80
2023-03-06T20:04:36.750Z,5.00
2023-03-06T20:07:04.833Z,4.53
2023-03-06T20:09:32.870Z,8.27
2023-03-06T20:12:00.085Z,5.83
2023-03-06T20:14:27.164Z,4.20
2023-03-06T20:16:53.751Z,3.20
2023-03-06T20:19:21.875Z,7.70
2023-03-06T20:21:48.642Z,4.87
2023-03-06T20:24:16.821Z,3.87
2023-03-06T20:26:46.270Z,5.50
2023-03-06T20:29:13.596Z,3.87
2023-03-06T20:31:40.781Z,8.40
2023-03-06T20:34:07.552Z,5.63
2023-03-06T20:36:35.989Z,4.43
2023-03-06T20:39:07.294Z,3.67
2023-03-06T20:41:33.919Z,5.80
2023-03-06T20:44:01.671Z,2.90
2023-03-06T20:46:29.284Z,9.67
2023-03-06T20:48:56.288Z,4.17
2023-03-06T20:51:28.546Z,6.07
2023-03-06T20:53:55.499Z,4.57
2023-03-06T20:56:23.830Z,5.90
2023-03-06T20:58:50.576Z,4.90
2023-03-06T21:01:17.967Z,6.33
2023-03-06T21:03:44.558Z,4.60
2023-03-06T21:06:11.079Z,5.63
2023-03-06T21:08:37.709Z,4.77
2023-03-06T21:11:04.844Z,3.53
2023-03-06T21:13:31.275Z,3.40
2023-03-06T21:15:57.961Z,3.97
2023-03-06T21:18:24.421Z,3.53
2023-03-06T21:20:51.280Z,6.73
2023-03-06T21:23:17.744Z,4.27
2023-03-06T21:25:51.445Z,3.93
2023-03-06T21:28:18.069Z,3.77
2023-03-06T21:30:45.255Z,4.17
2023-03-06T21:33:12.233Z,6.60
2023-03-06T21:35:39.348Z,5.40
2023-03-06T21:38:06.215Z,6.17
2023-03-06T21:40:32.990Z,4.60
2023-03-06T21:43:00.434Z,6.27
2023-03-06T21:45:30.192Z,4.40
2023-03-06T21:47:57.293Z,3.73
2023-03-06T21:50:24.399Z,4.70
2023-03-06T21:52:51.896Z,5.47
2023-03-06T21:55:18.866Z,4.73
2023-03-06T21:57:54.746Z,3.80
2023-03-06T22:00:23.536Z,4.67
2023-03-06T22:02:50.384Z,4.93
2023-03-06T22:05:17.310Z,9.27
2023-03-06T22:07:43.781Z,5.83
2023-03-06T22:10:12.102Z,5.27
2023-03-06T22:12:39.189Z,4.30
2023-03-06T22:15:06.017Z,5.63
2023-03-06T22:17:32.727Z,6.40
2023-03-06T22:19:59.280Z,6.20
2023-03-06T22:22:25.714Z,6.17
2023-03-06T22:24:52.169Z,6.93
2023-03-06T22:27:18.655Z,8.23
2023-03-06T22:29:45.519Z,6.93
2023-03-06T22:32:12.224Z,6.80
2023-03-06T22:34:38.936Z,7.83
2023-03-06T22:37:05.450Z,9.87
2023-03-06T22:39:32.077Z,10.00
2023-03-06T22:41:58.836Z,15.07
2023-03-06T22:44:25.465Z,13.10
2023-03-06T22:46:53.542Z,12.60
2023-03-06T22:49:20.907Z,12.20
2023-03-06T22:51:47.693Z,15.03
2023-03-06T22:54:14.464Z,15.33
2023-03-06T22:56:41.337Z,18.07
2023-03-06T22:59:07.873Z,14.97
2023-03-06T23:01:34.766Z,19.20
2023-03-06T23:04:02.671Z,21.40
2023-03-06T23:06:31.188Z,20.90
2023-03-06T23:08:59.121Z,21.80
2023-03-06T23:11:27.886Z,24.47
2023-03-06T23:14:14.067Z,26.17
2023-03-06T23:16:59.467Z,24.27
2023-03-06T23:19:45.346Z,21.57
2023-03-06T23:22:30.481Z,25.27
2023-03-06T23:25:15.898Z,24.60
2023-03-06T23:27:42.457Z,23.73
2023-03-06T23:30:09.504Z,22.83
2023-03-06T23:32:36.170Z,26.47
2023-03-06T23:35:02.872Z,25.77
2023-03-06T23:37:29.699Z,26.00
2023-03-06T23:39:59.156Z,22.13
2023-03-06T23:42:26.038Z,28.63
2023-03-06T23:44:55.609Z,27.20
2023-03-06T23:47:23.324Z,27.80
2023-03-06T23:49:50.156Z,25.73
2023-03-06T23:52:17.336Z,31.90
2023-03-06T23:54:44.258Z,32.93
2023-03-06T23:57:11.403Z,30.03
2023-03-06T23:59:38.435Z,25.53
